createdAt,value
2022-08-26T00:02:33.645Z,14.50
2022-08-26T00:07:35.389Z,13.97
2022-08-26T00:12:40.061Z,14.20
2022-08-26T00:17:41.804Z,14.30
2022-08-26T00:22:43.518Z,14.87
2022-08-26T00:27:45.534Z,14.73
2022-08-26T00:32:47.220Z,14.47
2022-08-26T00:37:50.441Z,14.97
2022-08-26T00:42:52.192Z,15.00
2022-08-26T00:47:57.549Z,15.67
2022-08-26T00:53:00.165Z,14.23
2022-08-26T00:58:01.937Z,14.73
2022-08-26T01:03:05.312Z,15.27
2022-08-26T01:08:09.219Z,14.60
2022-08-26T01:13:11.714Z,15.27
2022-08-26T01:18:13.619Z,15.23
2022-08-26T01:23:15.355Z,15.00
2022-08-26T01:28:27.404Z,15.57
2022-08-26T01:33:42.004Z,14.47
2022-08-26T01:38:44.634Z,13.90
2022-08-26T01:43:47.005Z,15.83
2022-08-26T01:48:52.385Z,14.60
2022-08-26T01:53:56.257Z,15.83
2022-08-26T01:59:01.278Z,15.17
2022-08-26T02:04:10.294Z,15.60
2022-08-26T02:09:12.085Z,15.80
2022-08-26T02:14:16.274Z,14.73
2022-08-26T02:19:20.669Z,14.90
2022-08-26T02:24:27.571Z,14.90
2022-08-26T02:29:32.988Z,14.73
2022-08-26T02:34:35.003Z,15.37
2022-08-26T02:39:37.476Z,14.77
2022-08-26T02:44:39.475Z,16.10
2022-08-26T02:49:44.598Z,15.40
2022-08-26T02:54:49.525Z,14.70
2022-08-26T02:59:51.372Z,15.60
2022-08-26T03:04:57.468Z,16.47
2022-08-26T03:10:06.918Z,14.83
2022-08-26T03:15:16.061Z,15.70
2022-08-26T03:20:19.401Z,15.67
2022-08-26T03:25:21.554Z,15.70
2022-08-26T03:30:49.269Z,15.90
2022-08-26T03:35:52.140Z,15.20
2022-08-26T03:40:53.804Z,14.50
2022-08-26T03:45:55.455Z,15.50
2022-08-26T03:50:57.121Z,16.37
2022-08-26T03:55:59.405Z,15.70
2022-08-26T04:01:01.049Z,15.17
2022-08-26T04:06:02.961Z,15.57
2022-08-26T04:11:05.235Z,15.93
2022-08-26T04:16:07.063Z,17.20
2022-08-26T04:21:08.826Z,16.93
2022-08-26T04:26:10.524Z,16.13
2022-08-26T04:31:13.310Z,16.07
2022-08-26T04:36:15.134Z,16.80
2022-08-26T04:41:17.802Z,16.60
2022-08-26T04:46:22.687Z,17.10
2022-08-26T04:51:28.086Z,16.93
2022-08-26T04:56:31.379Z,17.73
2022-08-26T05:01:34.382Z,16.67
2022-08-26T05:06:41.326Z,17.03
2022-08-26T05:11:43.013Z,17.40
2022-08-26T05:16:44.821Z,16.63
2022-08-26T05:21:49.518Z,16.23
2022-08-26T05:26:51.183Z,17.80
2022-08-26T05:31:53.304Z,18.03
2022-08-26T05:36:57.671Z,17.50
2022-08-26T05:41:59.503Z,16.70
2022-08-26T05:47:01.614Z,17.17
2022-08-26T05:52:03.610Z,15.70
2022-08-26T05:57:05.310Z,15.40
2022-08-26T06:02:07.368Z,16.23
2022-08-26T06:07:11.794Z,16.17
2022-08-26T06:12:15.713Z,16.90
2022-08-26T06:17:20.180Z,16.67
2022-08-26T06:22:40.118Z,15.87
2022-08-26T06:27:41.807Z,15.03
2022-08-26T06:32:43.484Z,17.27
2022-08-26T06:37:45.330Z,15.77
2022-08-26T06:42:47.500Z,17.77
2022-08-26T06:47:49.450Z,17.40
2022-08-26T06:52:52.613Z,16.67
2022-08-26T06:57:56.379Z,18.10
2022-08-26T07:02:58.077Z,17.80
2022-08-26T07:07:59.960Z,15.83
2022-08-26T07:13:01.701Z,16.50
2022-08-26T07:18:04.539Z,16.07
2022-08-26T07:23:09.985Z,16.13
2022-08-26T07:28:13.455Z,15.33
2022-08-26T07:33:15.141Z,14.80
2022-08-26T07:38:16.814Z,13.10
2022-08-26T07:43:18.476Z,14.27
2022-08-26T07:48:21.624Z,15.27
2022-08-26T07:53:24.228Z,15.23
2022-08-26T07:58:25.997Z,14.30
2022-08-26T08:03:27.653Z,14.60
2022-08-26T08:08:29.420Z,14.43
2022-08-26T08:13:31.143Z,15.60
2022-08-26T08:18:33.529Z,14.57
2022-08-26T08:23:35.425Z,14.53
2022-08-26T08:28:37.865Z,14.67
2022-08-26T08:33:39.523Z,14.60
2022-08-26T08:38:41.650Z,15.10
2022-08-26T08:43:46.370Z,14.80
2022-08-26T08:48:52.800Z,14.90
2022-08-26T08:53:56.413Z,13.57
2022-08-26T08:59:05.025Z,14.90
2022-08-26T09:04:22.460Z,15.17
2022-08-26T09:09:36.184Z,20.80
2022-08-26T09:14:38.475Z,14.37
2022-08-26T09:20:03.771Z,14.60
2022-08-26T09:25:08.065Z,15.47
2022-08-26T09:30:18.204Z,14.17
2022-08-26T09:35:39.561Z,14.57
2022-08-26T09:40:41.275Z,13.17
2022-08-26T09:45:50.046Z,14.40
2022-08-26T09:50:58.322Z,14.80
2022-08-26T09:56:17.343Z,13.77
2022-08-26T10:01:40.132Z,14.63
2022-08-26T10:06:44.207Z,13.83
2022-08-26T10:12:00.630Z,15.00
2022-08-26T10:17:08.441Z,14.90
2022-08-26T10:22:22.985Z,12.87
2022-08-26T10:27:32.990Z,12.73
2022-08-26T10:32:41.518Z,13.17
2022-08-26T10:37:48.941Z,12.43
2022-08-26T10:42:55.604Z,12.57
2022-08-26T10:48:07.565Z,15.77
2022-08-26T10:53:24.935Z,13.07
2022-08-26T10:58:28.472Z,13.83
2022-08-26T11:03:58.115Z,13.23
2022-08-26T11:09:01.489Z,13.67
2022-08-26T11:14:04.951Z,11.53
2022-08-26T11:19:07.575Z,11.97
2022-08-26T11:24:09.362Z,12.43
2022-08-26T11:29:12.248Z,12.40
2022-08-26T11:34:15.332Z,11.40
2022-08-26T11:39:28.808Z,12.40
2022-08-26T11:44:40.682Z,11.23
2022-08-26T11:49:42.388Z,10.90
2022-08-26T11:55:05.190Z,10.37
2022-08-26T12:00:12.515Z,10.33
2022-08-26T12:05:38.506Z,16.53
2022-08-26T12:10:41.595Z,11.23
2022-08-26T12:15:55.886Z,10.03
2022-08-26T12:21:01.700Z,10.73
2022-08-26T12:26:25.151Z,9.23
2022-08-26T12:31:31.418Z,9.20
2022-08-26T12:36:49.699Z,11.15
2022-08-26T12:41:54.991Z,9.02
2022-08-26T12:47:11.804Z,8.57
2022-08-26T12:52:32.505Z,7.65
2022-08-26T12:57:35.913Z,8.77
2022-08-26T13:02:37.782Z,9.60
2022-08-26T13:07:40.815Z,10.03
2022-08-26T13:12:42.490Z,9.10
2022-08-26T13:17:44.197Z,9.30
2022-08-26T13:22:45.983Z,9.60
2022-08-26T13:27:55.654Z,10.13
2022-08-26T13:32:57.959Z,9.63
2022-08-26T13:37:59.619Z,9.18
2022-08-26T13:43:01.278Z,10.02
2022-08-26T13:48:04.454Z,10.73
2022-08-26T13:53:06.125Z,11.60
2022-08-26T13:58:08.253Z,12.67
2022-08-26T14:03:13.382Z,14.53
2022-08-26T14:08:15.314Z,8.87
2022-08-26T14:13:17.062Z,8.47
2022-08-26T14:18:27.735Z,7.80
2022-08-26T14:23:29.939Z,8.20
2022-08-26T14:28:31.692Z,8.77
2022-08-26T14:33:34.144Z,7.50
2022-08-26T14:38:35.801Z,7.00
2022-08-26T14:43:39.892Z,6.73
2022-08-26T14:48:41.572Z,2.60
2022-08-26T14:54:01.812Z,1.97
2022-08-26T14:59:03.477Z,1.73
2022-08-26T15:04:05.212Z,1.50
2022-08-26T15:09:06.965Z,1.00
2022-08-26T15:14:08.725Z,0.70
2022-08-26T15:19:21.103Z,0.70
2022-08-26T15:24:23.917Z,0.53
2022-08-26T15:29:25.790Z,0.50
2022-08-26T15:34:27.541Z,0.60
2022-08-26T15:39:29.248Z,6.57
2022-08-26T15:44:30.908Z,7.70
2022-08-26T15:49:32.861Z,5.73
2022-08-26T15:54:35.121Z,4.90
2022-08-26T15:59:36.840Z,4.53
2022-08-26T16:04:38.493Z,8.87
2022-08-26T16:09:40.152Z,4.60
2022-08-26T16:14:41.827Z,4.50
2022-08-26T16:19:43.760Z,5.00
2022-08-26T16:24:45.431Z,4.00
2022-08-26T16:29:47.095Z,4.37
2022-08-26T16:34:56.770Z,4.53
2022-08-26T16:39:58.751Z,4.30
2022-08-26T16:45:00.483Z,4.07
2022-08-26T16:50:03.457Z,4.53
2022-08-26T16:55:09.637Z,4.40
2022-08-26T17:00:15.525Z,4.70
2022-08-26T17:05:17.238Z,4.60
2022-08-26T17:10:19.125Z,4.50
2022-08-26T17:15:23.560Z,4.53
2022-08-26T17:20:25.408Z,4.93
2022-08-26T17:25:31.514Z,9.97
2022-08-26T17:30:33.205Z,29.07
2022-08-26T17:35:34.922Z,12.60
2022-08-26T17:40:36.655Z,13.67
2022-08-26T17:45:39.332Z,12.20
2022-08-26T17:50:41.646Z,8.43
2022-08-26T17:55:45.218Z,6.73
2022-08-26T18:00:48.824Z,7.20
2022-08-26T18:05:51.218Z,8.47
2022-08-26T18:10:52.942Z,7.40
2022-08-26T18:15:54.668Z,6.97
2022-08-26T18:21:01.367Z,6.40
2022-08-26T18:26:03.440Z,6.87
2022-08-26T18:31:07.297Z,7.43
2022-08-26T18:36:19.599Z,7.73
2022-08-26T18:41:22.818Z,7.67
2022-08-26T18:46:25.283Z,6.47
2022-08-26T18:51:31.857Z,6.30
2022-08-26T18:56:34.353Z,6.83
2022-08-26T19:01:36.722Z,9.03
2022-08-26T19:06:38.856Z,9.23
2022-08-26T19:11:42.884Z,8.80
2022-08-26T19:16:46.443Z,11.20
2022-08-26T19:21:48.358Z,12.67
2022-08-26T19:26:57.834Z,4.80
2022-08-26T19:31:59.817Z,2.83
2022-08-26T19:37:02.072Z,2.13
2022-08-26T19:42:04.024Z,1.40
2022-08-26T19:47:07.028Z,1.60
2022-08-26T19:52:08.732Z,1.47
2022-08-26T19:57:10.389Z,1.20
2022-08-26T20:02:13.224Z,0.93
2022-08-26T20:07:18.147Z,0.83
2022-08-26T20:12:20.602Z,0.93
2022-08-26T20:17:22.280Z,0.80
2022-08-26T20:22:24.127Z,0.57
2022-08-26T20:27:37.894Z,0.70
2022-08-26T20:32:40.340Z,0.50
2022-08-26T20:37:42.085Z,0.47
2022-08-26T20:42:43.750Z,0.40
2022-08-26T20:47:45.445Z,0.40
2022-08-26T20:52:47.111Z,0.53
2022-08-26T20:57:48.784Z,0.30
2022-08-26T21:02:50.503Z,0.30
2022-08-26T21:07:52.900Z,0.30
2022-08-26T21:12:54.863Z,0.30
2022-08-26T21:17:57.029Z,0.30
2022-08-26T21:22:58.765Z,5.27
2022-08-26T21:28:00.439Z,6.17
2022-08-26T21:33:02.083Z,7.10
2022-08-26T21:38:03.781Z,7.70
2022-08-26T21:43:05.441Z,7.23
2022-08-26T21:48:07.723Z,7.23
2022-08-26T21:53:10.236Z,7.67
2022-08-26T21:58:12.603Z,7.90
2022-08-26T22:03:14.661Z,8.60
2022-08-26T22:08:16.646Z,8.50
2022-08-26T22:13:33.022Z,8.63
2022-08-26T22:18:34.796Z,9.57
2022-08-26T22:23:36.691Z,10.50
2022-08-26T22:28:39.251Z,9.90
2022-08-26T22:33:42.357Z,11.20
2022-08-26T22:38:44.029Z,10.77
2022-08-26T22:43:45.832Z,11.23
2022-08-26T22:48:47.674Z,10.97
2022-08-26T22:53:55.544Z,10.80
2022-08-26T22:58:57.248Z,11.67
2022-08-26T23:03:58.902Z,11.40
2022-08-26T23:09:00.535Z,11.33
2022-08-26T23:14:05.055Z,11.10
2022-08-26T23:19:10.504Z,11.70
2022-08-26T23:24:12.251Z,12.90
2022-08-26T23:29:15.080Z,12.53
2022-08-26T23:34:35.255Z,13.77
2022-08-26T23:39:37.625Z,15.40
2022-08-26T23:44:39.338Z,16.00
2022-08-26T23:49:41.434Z,17.87
2022-08-26T23:54:43.122Z,18.30
2022-08-26T23:59:44.947Z,18.70
